sensor_id;sensor_type;location;lat;lon;timestamp;temperature;humidity
1137;DHT22;557;48.466;7.950;2023-04-24T00:01:52;11.70;80.80
1137;DHT22;557;48.466;7.950;2023-04-24T00:04:41;11.80;83.60
1137;DHT22;557;48.466;7.950;2023-04-24T00:07:30;11.70;94.00
1137;DHT22;557;48.466;7.950;2023-04-24T00:10:18;11.80;72.80
1137;DHT22;557;48.466;7.950;2023-04-24T00:13:05;11.90;59.20
1137;DHT22;557;48.466;7.950;2023-04-24T00:15:53;11.80;64.40
1137;DHT22;557;48.466;7.950;2023-04-24T00:18:40;11.90;42.70
1137;DHT22;557;48.466;7.950;2023-04-24T00:21:29;11.90;40.80
1137;DHT22;557;48.466;7.950;2023-04-24T00:24:18;11.90;48.90
1137;DHT22;557;48.466;7.950;2023-04-24T00:27:05;12.00;32.20
1137;DHT22;557;48.466;7.950;2023-04-24T00:29:53;12.00;44.30
1137;DHT22;557;48.466;7.950;2023-04-24T00:32:40;11.90;97.20
1137;DHT22;557;48.466;7.950;2023-04-24T00:35:27;11.80;99.90
1137;DHT22;557;48.466;7.950;2023-04-24T00:38:16;11.60;99.90
1137;DHT22;557;48.466;7.950;2023-04-24T00:41:04;11.50;99.90
1137;DHT22;557;48.466;7.950;2023-04-24T00:43:52;11.30;99.90
1137;DHT22;557;48.466;7.950;2023-04-24T00:46:39;11.20;99.90
1137;DHT22;557;48.466;7.950;2023-04-24T00:49:26;11.10;99.90
1137;DHT22;557;48.466;7.950;2023-04-24T00:52:14;11.10;99.90
1137;DHT22;557;48.466;7.950;2023-04-24T00:55:05;11.00;99.90
1137;DHT22;557;48.466;7.950;2023-04-24T00:57:53;11.10;99.90
1137;DHT22;557;48.466;7.950;2023-04-24T01:00:40;11.10;99.90
1137;DHT22;557;48.466;7.950;2023-04-24T01:03:29;11.00;99.90
1137;DHT22;557;48.466;7.950;2023-04-24T01:06:18;11.00;99.90
1137;DHT22;557;48.466;7.950;2023-04-24T01:09:06;11.00;99.90
1137;DHT22;557;48.466;7.950;2023-04-24T01:11:56;11.10;99.90
1137;DHT22;557;48.466;7.950;2023-04-24T01:14:43;11.10;99.90
1137;DHT22;557;48.466;7.950;2023-04-24T01:17:31;11.10;99.90
1137;DHT22;557;48.466;7.950;2023-04-24T01:20:19;11.20;99.90
1137;DHT22;557;48.466;7.950;2023-04-24T01:23:08;11.20;99.90
1137;DHT22;557;48.466;7.950;2023-04-24T01:25:56;11.20;99.90
1137;DHT22;557;48.466;7.950;2023-04-24T01:28:43;11.20;99.90
1137;DHT22;557;48.466;7.950;2023-04-24T01:31:32;11.20;99.90
1137;DHT22;557;48.466;7.950;2023-04-24T01:34:20;11.20;99.90
1137;DHT22;557;48.466;7.950;2023-04-24T01:37:07;11.30;99.90
1137;DHT22;557;48.466;7.950;2023-04-24T01:39:56;11.30;99.90
1137;DHT22;557;48.466;7.950;2023-04-24T01:42:43;11.30;99.90
1137;DHT22;557;48.466;7.950;2023-04-24T01:45:32;11.30;99.90
1137;DHT22;557;48.466;7.950;2023-04-24T01:48:19;11.30;99.90
1137;DHT22;557;48.466;7.950;2023-04-24T01:51:07;11.30;99.90
1137;DHT22;557;48.466;7.950;2023-04-24T01:53:54;11.20;99.90
1137;DHT22;557;48.466;7.950;2023-04-24T01:56:43;11.20;99.90
1137;DHT22;557;48.466;7.950;2023-04-24T01:59:33;11.20;99.90
1137;DHT22;557;48.466;7.950;2023-04-24T02:02:20;11.20;99.90
1137;DHT22;557;48.466;7.950;2023-04-24T02:05:09;11.30;99.90
1137;DHT22;557;48.466;7.950;2023-04-24T02:07:57;11.30;99.90
1137;DHT22;557;48.466;7.950;2023-04-24T02:10:44;11.30;99.90
1137;DHT22;557;48.466;7.950;2023-04-24T02:13:33;11.30;99.90
1137;DHT22;557;48.466;7.950;2023-04-24T02:16:23;11.30;99.90
1137;DHT22;557;48.466;7.950;2023-04-24T02:19:10;11.30;99.90
1137;DHT22;557;48.466;7.950;2023-04-24T02:21:57;11.20;99.90
1137;DHT22;557;48.466;7.950;2023-04-24T02:24:45;11.20;99.90
1137;DHT22;557;48.466;7.950;2023-04-24T02:27:32;11.10;99.90
1137;DHT22;557;48.466;7.950;2023-04-24T02:30:21;11.10;99.90
1137;DHT22;557;48.466;7.950;2023-04-24T02:33:08;11.10;99.90
1137;DHT22;557;48.466;7.950;2023-04-24T02:35:56;11.10;99.90
1137;DHT22;557;48.466;7.950;2023-04-24T02:38:43;11.20;99.90
1137;DHT22;557;48.466;7.950;2023-04-24T02:41:30;11.20;99.90
1137;DHT22;557;48.466;7.950;2023-04-24T02:44:18;11.20;99.90
1137;DHT22;557;48.466;7.950;2023-04-24T02:47:07;11.20;99.90
1137;DHT22;557;48.466;7.950;2023-04-24T02:49:54;11.20;99.90
1137;DHT22;557;48.466;7.950;2023-04-24T02:52:42;11.20;99.90
1137;DHT22;557;48.466;7.950;2023-04-24T02:55:29;11.20;99.90
1137;DHT22;557;48.466;7.950;2023-04-24T02:58:17;11.20;99.90
1137;DHT22;557;48.466;7.950;2023-04-24T03:01:05;11.20;99.90
1137;DHT22;557;48.466;7.950;2023-04-24T03:03:54;11.20;99.90
1137;DHT22;557;48.466;7.950;2023-04-24T03:06:41;11.20;99.90
1137;DHT22;557;48.466;7.950;2023-04-24T03:09:29;11.20;99.90
1137;DHT22;557;48.466;7.950;2023-04-24T03:12:16;11.20;99.90
1137;DHT22;557;48.466;7.950;2023-04-24T03:15:04;11.20;99.90
1137;DHT22;557;48.466;7.950;2023-04-24T03:17:52;11.00;99.90
1137;DHT22;557;48.466;7.950;2023-04-24T03:20:40;10.90;99.90
1137;DHT22;557;48.466;7.950;2023-04-24T03:23:28;10.80;99.90
1137;DHT22;557;48.466;7.950;2023-04-24T03:26:15;10.70;99.90
1137;DHT22;557;48.466;7.950;2023-04-24T03:29:02;10.60;99.90
1137;DHT22;557;48.466;7.950;2023-04-24T03:31:50;10.50;99.90
1137;DHT22;557;48.466;7.950;2023-04-24T03:34:37;10.40;99.90
1137;DHT22;557;48.466;7.950;2023-04-24T03:37:26;10.40;99.90
1137;DHT22;557;48.466;7.950;2023-04-24T03:40:13;10.40;99.90
1137;DHT22;557;48.466;7.950;2023-04-24T03:43:00;10.40;99.90
1137;DHT22;557;48.466;7.950;2023-04-24T03:45:48;10.40;99.90
1137;DHT22;557;48.466;7.950;2023-04-24T03:48:35;10.40;99.90
1137;DHT22;557;48.466;7.950;2023-04-24T03:51:23;10.40;99.90
1137;DHT22;557;48.466;7.950;2023-04-24T03:54:11;10.50;99.90
1137;DHT22;557;48.466;7.950;2023-04-24T03:56:59;10.40;99.90
1137;DHT22;557;48.466;7.950;2023-04-24T03:59:47;10.40;99.90
1137;DHT22;557;48.466;7.950;2023-04-24T04:02:34;10.40;99.90
1137;DHT22;557;48.466;7.950;2023-04-24T04:05:22;10.40;99.90
1137;DHT22;557;48.466;7.950;2023-04-24T04:08:09;10.40;99.90
1137;DHT22;557;48.466;7.950;2023-04-24T04:10:58;10.30;99.90
1137;DHT22;557;48.466;7.950;2023-04-24T04:13:45;10.30;99.90
1137;DHT22;557;48.466;7.950;2023-04-24T04:16:33;10.30;99.90
1137;DHT22;557;48.466;7.950;2023-04-24T04:19:22;10.30;99.90
1137;DHT22;557;48.466;7.950;2023-04-24T04:22:09;10.20;99.90
1137;DHT22;557;48.466;7.950;2023-04-24T04:24:56;10.20;99.90
1137;DHT22;557;48.466;7.950;2023-04-24T04:27:45;10.20;99.90
1137;DHT22;557;48.466;7.950;2023-04-24T04:30:33;10.20;99.90
1137;DHT22;557;48.466;7.950;2023-04-24T04:33:21;10.20;99.90
1137;DHT22;557;48.466;7.950;2023-04-24T04:36:09;10.20;99.90
1137;DHT22;557;48.466;7.950;2023-04-24T04:38:56;10.10;99.90
1137;DHT22;557;48.466;7.950;2023-04-24T04:41:45;10.10;99.90
1137;DHT22;557;48.466;7.950;2023-04-24T04:44:36;10.00;99.90
1137;DHT22;557;48.466;7.950;2023-04-24T04:47:24;10.00;99.90
1137;DHT22;557;48.466;7.950;2023-04-24T04:50:12;10.00;99.90
1137;DHT22;557;48.466;7.950;2023-04-24T04:52:59;10.10;99.90
1137;DHT22;557;48.466;7.950;2023-04-24T04:55:47;10.10;99.90
1137;DHT22;557;48.466;7.950;2023-04-24T04:58:34;10.10;99.90
1137;DHT22;557;48.466;7.950;2023-04-24T05:01:23;10.20;99.90
1137;DHT22;557;48.466;7.950;2023-04-24T05:04:11;10.20;99.90
1137;DHT22;557;48.466;7.950;2023-04-24T05:06:58;10.10;99.90
1137;DHT22;557;48.466;7.950;2023-04-24T05:09:46;10.10;99.90
1137;DHT22;557;48.466;7.950;2023-04-24T05:12:33;10.10;99.90
1137;DHT22;557;48.466;7.950;2023-04-24T05:15:20;10.10;99.90
1137;DHT22;557;48.466;7.950;2023-04-24T05:18:09;10.10;99.90
1137;DHT22;557;48.466;7.950;2023-04-24T05:20:56;10.20;99.90
1137;DHT22;557;48.466;7.950;2023-04-24T05:23:44;10.20;99.90
1137;DHT22;557;48.466;7.950;2023-04-24T05:26:31;10.10;99.90
1137;DHT22;557;48.466;7.950;2023-04-24T05:29:18;10.10;99.90
1137;DHT22;557;48.466;7.950;2023-04-24T05:32:06;10.10;99.90
1137;DHT22;557;48.466;7.950;2023-04-24T05:34:55;10.20;99.90
1137;DHT22;557;48.466;7.950;2023-04-24T05:37:42;10.20;99.90
1137;DHT22;557;48.466;7.950;2023-04-24T05:40:29;10.20;99.90
1137;DHT22;557;48.466;7.950;2023-04-24T05:43:17;10.20;99.90
1137;DHT22;557;48.466;7.950;2023-04-24T05:46:04;10.20;99.90
1137;DHT22;557;48.466;7.950;2023-04-24T05:48:51;10.10;99.90
1137;DHT22;557;48.466;7.950;2023-04-24T05:51:40;10.00;99.90
1137;DHT22;557;48.466;7.950;2023-04-24T05:54:27;9.90;99.90
1137;DHT22;557;48.466;7.950;2023-04-24T05:57:15;9.80;99.90
1137;DHT22;557;48.466;7.950;2023-04-24T06:00:02;9.80;99.90
1137;DHT22;557;48.466;7.950;2023-04-24T06:02:50;9.80;99.90
1137;DHT22;557;48.466;7.950;2023-04-24T06:05:38;9.80;99.90
1137;DHT22;557;48.466;7.950;2023-04-24T06:08:27;9.80;99.90
1137;DHT22;557;48.466;7.950;2023-04-24T06:11:14;9.90;99.90
1137;DHT22;557;48.466;7.950;2023-04-24T06:14:02;9.90;99.90
1137;DHT22;557;48.466;7.950;2023-04-24T06:16:49;9.90;99.90
1137;DHT22;557;48.466;7.950;2023-04-24T06:19:36;9.90;99.90
1137;DHT22;557;48.466;7.950;2023-04-24T06:22:24;10.00;99.90
1137;DHT22;557;48.466;7.950;2023-04-24T06:25:12;9.90;49.00
1137;DHT22;557;48.466;7.950;2023-04-24T06:28:00;9.90;55.80
1137;DHT22;557;48.466;7.950;2023-04-24T06:30:47;9.90;42.10
1137;DHT22;557;48.466;7.950;2023-04-24T06:33:35;9.90;31.00
1137;DHT22;557;48.466;7.950;2023-04-24T06:36:22;9.90;9.10
1137;DHT22;557;48.466;7.950;2023-04-24T06:39:10;9.90;1.00
1137;DHT22;557;48.466;7.950;2023-04-24T06:41:58;9.90;1.00
1137;DHT22;557;48.466;7.950;2023-04-24T06:44:46;10.00;1.00
1137;DHT22;557;48.466;7.950;2023-04-24T06:47:33;10.30;1.00
1137;DHT22;557;48.466;7.950;2023-04-24T06:50:21;10.60;1.00
1137;DHT22;557;48.466;7.950;2023-04-24T06:53:08;10.80;1.00
1137;DHT22;557;48.466;7.950;2023-04-24T06:55:57;10.90;99.90
1137;DHT22;557;48.466;7.950;2023-04-24T06:58:45;11.10;99.90
1137;DHT22;557;48.466;7.950;2023-04-24T07:01:34;11.30;84.50
1137;DHT22;557;48.466;7.950;2023-04-24T07:04:21;11.50;1.00
1137;DHT22;557;48.466;7.950;2023-04-24T07:07:08;11.70;90.30
1137;DHT22;557;48.466;7.950;2023-04-24T07:09:58;12.00;99.90
1137;DHT22;557;48.466;7.950;2023-04-24T07:12:46;12.20;99.90
1137;DHT22;557;48.466;7.950;2023-04-24T07:15:35;12.30;1.00
1137;DHT22;557;48.466;7.950;2023-04-24T07:18:22;12.00;1.00
1137;DHT22;557;48.466;7.950;2023-04-24T07:21:09;11.80;99.90
1137;DHT22;557;48.466;7.950;2023-04-24T07:23:57;11.80;1.00
1137;DHT22;557;48.466;7.950;2023-04-24T07:26:44;11.70;99.90
1137;DHT22;557;48.466;7.950;2023-04-24T07:29:32;11.60;1.00
1137;DHT22;557;48.466;7.950;2023-04-24T07:32:21;11.40;99.90
1137;DHT22;557;48.466;7.950;2023-04-24T07:35:09;11.30;1.00
1137;DHT22;557;48.466;7.950;2023-04-24T07:37:56;11.30;99.90
1137;DHT22;557;48.466;7.950;2023-04-24T07:40:43;11.30;1.00
1137;DHT22;557;48.466;7.950;2023-04-24T07:43:31;11.30;99.90
1137;DHT22;557;48.466;7.950;2023-04-24T07:46:18;11.40;99.90
1137;DHT22;557;48.466;7.950;2023-04-24T07:49:07;11.40;99.90
1137;DHT22;557;48.466;7.950;2023-04-24T07:51:54;11.50;1.00
1137;DHT22;557;48.466;7.950;2023-04-24T07:54:41;11.80;99.90
1137;DHT22;557;48.466;7.950;2023-04-24T07:57:29;12.10;99.90
1137;DHT22;557;48.466;7.950;2023-04-24T08:00:17;12.40;99.90
1137;DHT22;557;48.466;7.950;2023-04-24T08:03:04;12.40;99.90
1137;DHT22;557;48.466;7.950;2023-04-24T08:05:53;12.00;99.90
1137;DHT22;557;48.466;7.950;2023-04-24T08:08:40;11.90;99.90
1137;DHT22;557;48.466;7.950;2023-04-24T08:11:28;11.80;99.90
1137;DHT22;557;48.466;7.950;2023-04-24T08:14:15;12.10;99.90
1137;DHT22;557;48.466;7.950;2023-04-24T08:17:02;12.20;99.90
1137;DHT22;557;48.466;7.950;2023-04-24T08:19:50;12.20;99.90
1137;DHT22;557;48.466;7.950;2023-04-24T08:22:40;12.10;99.90
1137;DHT22;557;48.466;7.950;2023-04-24T08:25:28;12.00;99.90
1137;DHT22;557;48.466;7.950;2023-04-24T08:28:15;11.90;99.90
1137;DHT22;557;48.466;7.950;2023-04-24T08:31:06;11.80;99.90
1137;DHT22;557;48.466;7.950;2023-04-24T08:33:53;12.00;99.90
1137;DHT22;557;48.466;7.950;2023-04-24T08:36:40;12.00;99.90
1137;DHT22;557;48.466;7.950;2023-04-24T08:39:29;12.30;99.90
1137;DHT22;557;48.466;7.950;2023-04-24T08:42:17;12.70;99.90
1137;DHT22;557;48.466;7.950;2023-04-24T08:45:05;12.60;99.90
1137;DHT22;557;48.466;7.950;2023-04-24T08:47:55;12.50;99.90
1137;DHT22;557;48.466;7.950;2023-04-24T08:50:44;12.30;99.90
1137;DHT22;557;48.466;7.950;2023-04-24T08:53:32;12.00;99.90
1137;DHT22;557;48.466;7.950;2023-04-24T08:56:22;11.80;99.90
1137;DHT22;557;48.466;7.950;2023-04-24T08:59:10;11.60;99.90
1137;DHT22;557;48.466;7.950;2023-04-24T09:01:58;11.40;99.90
1137;DHT22;557;48.466;7.950;2023-04-24T09:04:46;11.30;99.90
1137;DHT22;557;48.466;7.950;2023-04-24T09:07:35;11.20;99.90
1137;DHT22;557;48.466;7.950;2023-04-24T09:10:25;11.20;99.90
1137;DHT22;557;48.466;7.950;2023-04-24T09:13:15;11.20;99.90
1137;DHT22;557;48.466;7.950;2023-04-24T09:16:02;11.20;99.90
1137;DHT22;557;48.466;7.950;2023-04-24T09:18:50;11.20;99.90
1137;DHT22;557;48.466;7.950;2023-04-24T09:21:37;11.20;99.90
1137;DHT22;557;48.466;7.950;2023-04-24T09:24:28;11.10;99.90
1137;DHT22;557;48.466;7.950;2023-04-24T09:27:15;11.00;1.00
1137;DHT22;557;48.466;7.950;2023-04-24T09:30:07;11.00;99.90
1137;DHT22;557;48.466;7.950;2023-04-24T09:33:10;11.00;1.00
1137;DHT22;557;48.466;7.950;2023-04-24T09:35:57;11.10;99.90
1137;DHT22;557;48.466;7.950;2023-04-24T09:38:45;11.10;99.90
1137;DHT22;557;48.466;7.950;2023-04-24T09:41:32;11.10;99.90
1137;DHT22;557;48.466;7.950;2023-04-24T09:44:20;11.10;99.90
1137;DHT22;557;48.466;7.950;2023-04-24T09:47:09;11.00;1.00
1137;DHT22;557;48.466;7.950;2023-04-24T09:49:58;10.90;1.00
1137;DHT22;557;48.466;7.950;2023-04-24T09:52:46;10.90;1.00
1137;DHT22;557;48.466;7.950;2023-04-24T09:55:39;10.90;99.90
1137;DHT22;557;48.466;7.950;2023-04-24T09:58:27;10.90;1.00
1137;DHT22;557;48.466;7.950;2023-04-24T10:01:15;11.00;14.50
1137;DHT22;557;48.466;7.950;2023-04-24T10:04:04;11.00;99.90
1137;DHT22;557;48.466;7.950;2023-04-24T10:06:53;11.00;99.90
1137;DHT22;557;48.466;7.950;2023-04-24T10:09:41;11.10;99.90
1137;DHT22;557;48.466;7.950;2023-04-24T10:12:29;11.10;99.90
1137;DHT22;557;48.466;7.950;2023-04-24T10:15:18;11.20;99.90
1137;DHT22;557;48.466;7.950;2023-04-24T10:18:07;11.20;99.90
1137;DHT22;557;48.466;7.950;2023-04-24T10:20:57;11.20;99.90
1137;DHT22;557;48.466;7.950;2023-04-24T10:23:46;11.30;1.00
1137;DHT22;557;48.466;7.950;2023-04-24T10:26:35;11.30;1.00
1137;DHT22;557;48.466;7.950;2023-04-24T10:29:23;11.20;1.00
1137;DHT22;557;48.466;7.950;2023-04-24T10:32:11;11.30;1.00
1137;DHT22;557;48.466;7.950;2023-04-24T10:34:58;11.30;1.00
1137;DHT22;557;48.466;7.950;2023-04-24T10:37:50;11.30;1.00
1137;DHT22;557;48.466;7.950;2023-04-24T10:40:37;11.30;1.00
1137;DHT22;557;48.466;7.950;2023-04-24T10:43:24;11.20;1.00
1137;DHT22;557;48.466;7.950;2023-04-24T10:46:19;11.20;1.00
1137;DHT22;557;48.466;7.950;2023-04-24T10:49:07;11.10;1.00
1137;DHT22;557;48.466;7.950;2023-04-24T10:52:00;11.10;1.00
1137;DHT22;557;48.466;7.950;2023-04-24T10:54:49;11.10;1.00
1137;DHT22;557;48.466;7.950;2023-04-24T10:57:36;11.10;1.00
1137;DHT22;557;48.466;7.950;2023-04-24T11:00:25;11.10;1.00
1137;DHT22;557;48.466;7.950;2023-04-24T11:03:28;11.00;1.00
1137;DHT22;557;48.466;7.950;2023-04-24T11:06:16;11.00;1.00
1137;DHT22;557;48.466;7.950;2023-04-24T11:09:15;10.90;58.50
1137;DHT22;557;48.466;7.950;2023-04-24T11:12:07;10.60;30.90
1137;DHT22;557;48.466;7.950;2023-04-24T11:15:02;10.40;27.90
1137;DHT22;557;48.466;7.950;2023-04-24T11:17:49;10.30;99.90
1137;DHT22;557;48.466;7.950;2023-04-24T11:20:38;10.40;99.90
1137;DHT22;557;48.466;7.950;2023-04-24T11:23:35;10.50;99.90
1137;DHT22;557;48.466;7.950;2023-04-24T11:26:23;10.70;1.00
1137;DHT22;557;48.466;7.950;2023-04-24T11:29:19;10.80;1.00
1137;DHT22;557;48.466;7.950;2023-04-24T11:32:27;11.00;1.00
1137;DHT22;557;48.466;7.950;2023-04-24T11:35:16;11.30;99.90
1137;DHT22;557;48.466;7.950;2023-04-24T11:38:04;11.50;99.90
1137;DHT22;557;48.466;7.950;2023-04-24T11:40:52;11.80;1.00
1137;DHT22;557;48.466;7.950;2023-04-24T11:43:40;12.10;99.90
1137;DHT22;557;48.466;7.950;2023-04-24T11:46:30;12.10;99.90
1137;DHT22;557;48.466;7.950;2023-04-24T11:49:17;12.10;3.60
1137;DHT22;557;48.466;7.950;2023-04-24T11:52:05;12.10;99.90
1137;DHT22;557;48.466;7.950;2023-04-24T11:54:52;12.00;1.00
1137;DHT22;557;48.466;7.950;2023-04-24T11:57:42;11.80;1.00
1137;DHT22;557;48.466;7.950;2023-04-24T12:00:31;11.70;1.00
1137;DHT22;557;48.466;7.950;2023-04-24T12:03:21;11.70;1.00
1137;DHT22;557;48.466;7.950;2023-04-24T12:06:10;11.80;1.00
1137;DHT22;557;48.466;7.950;2023-04-24T12:08:57;11.80;1.00
1137;DHT22;557;48.466;7.950;2023-04-24T12:11:52;11.80;1.00
1137;DHT22;557;48.466;7.950;2023-04-24T12:14:47;11.80;1.00
1137;DHT22;557;48.466;7.950;2023-04-24T12:17:35;11.70;1.00
1137;DHT22;557;48.466;7.950;2023-04-24T12:20:26;11.70;1.00
1137;DHT22;557;48.466;7.950;2023-04-24T12:23:14;11.80;1.00
1137;DHT22;557;48.466;7.950;2023-04-24T12:26:03;11.90;1.00
1137;DHT22;557;48.466;7.950;2023-04-24T12:28:51;11.90;99.90
1137;DHT22;557;48.466;7.950;2023-04-24T12:31:39;11.90;99.90
1137;DHT22;557;48.466;7.950;2023-04-24T12:34:26;12.00;1.00
1137;DHT22;557;48.466;7.950;2023-04-24T12:37:14;11.90;1.00
1137;DHT22;557;48.466;7.950;2023-04-24T12:40:04;12.10;1.00
1137;DHT22;557;48.466;7.950;2023-04-24T12:42:52;12.20;1.00
1137;DHT22;557;48.466;7.950;2023-04-24T12:45:41;12.10;99.90
1137;DHT22;557;48.466;7.950;2023-04-24T12:48:28;12.10;99.90
1137;DHT22;557;48.466;7.950;2023-04-24T12:51:16;12.10;99.90
1137;DHT22;557;48.466;7.950;2023-04-24T12:54:05;12.00;99.90
1137;DHT22;557;48.466;7.950;2023-04-24T12:56:53;12.00;99.90
1137;DHT22;557;48.466;7.950;2023-04-24T12:59:40;11.90;99.90
1137;DHT22;557;48.466;7.950;2023-04-24T13:02:29;11.90;99.90
1137;DHT22;557;48.466;7.950;2023-04-24T13:05:17;11.90;99.90
1137;DHT22;557;48.466;7.950;2023-04-24T13:08:04;11.90;99.90
1137;DHT22;557;48.466;7.950;2023-04-24T13:10:53;11.90;99.90
1137;DHT22;557;48.466;7.950;2023-04-24T13:13:40;11.90;99.90
1137;DHT22;557;48.466;7.950;2023-04-24T13:16:27;11.80;99.90
1137;DHT22;557;48.466;7.950;2023-04-24T13:19:15;11.80;99.90
1137;DHT22;557;48.466;7.950;2023-04-24T13:22:02;11.80;99.90
1137;DHT22;557;48.466;7.950;2023-04-24T13:24:50;11.80;99.90
1137;DHT22;557;48.466;7.950;2023-04-24T13:27:39;11.90;99.90
1137;DHT22;557;48.466;7.950;2023-04-24T13:30:26;11.90;1.00
1137;DHT22;557;48.466;7.950;2023-04-24T13:33:14;12.00;99.90
1137;DHT22;557;48.466;7.950;2023-04-24T13:36:01;12.20;99.90
1137;DHT22;557;48.466;7.950;2023-04-24T13:38:49;12.30;99.90
1137;DHT22;557;48.466;7.950;2023-04-24T13:41:36;12.50;99.90
1137;DHT22;557;48.466;7.950;2023-04-24T13:44:25;12.60;99.90
1137;DHT22;557;48.466;7.950;2023-04-24T13:47:12;12.60;99.90
1137;DHT22;557;48.466;7.950;2023-04-24T13:50:00;12.50;99.90
1137;DHT22;557;48.466;7.950;2023-04-24T13:52:47;12.50;99.90
1137;DHT22;557;48.466;7.950;2023-04-24T13:55:35;12.40;99.90
1137;DHT22;557;48.466;7.950;2023-04-24T13:58:23;12.50;99.90
1137;DHT22;557;48.466;7.950;2023-04-24T14:01:11;12.50;99.90
1137;DHT22;557;48.466;7.950;2023-04-24T14:03:59;12.60;99.90
1137;DHT22;557;48.466;7.950;2023-04-24T14:06:46;12.70;99.90
1137;DHT22;557;48.466;7.950;2023-04-24T14:09:34;12.80;99.90
1137;DHT22;557;48.466;7.950;2023-04-24T14:12:21;13.00;99.90
1137;DHT22;557;48.466;7.950;2023-04-24T14:15:09;13.00;99.90
1137;DHT22;557;48.466;7.950;2023-04-24T14:18:00;13.10;99.90
1137;DHT22;557;48.466;7.950;2023-04-24T14:20:47;13.20;99.90
1137;DHT22;557;48.466;7.950;2023-04-24T14:23:35;13.40;99.90
1137;DHT22;557;48.466;7.950;2023-04-24T14:26:22;13.40;99.90
1137;DHT22;557;48.466;7.950;2023-04-24T14:29:10;13.50;99.90
1137;DHT22;557;48.466;7.950;2023-04-24T14:31:57;13.70;99.90
1137;DHT22;557;48.466;7.950;2023-04-24T14:34:46;13.90;99.90
1137;DHT22;557;48.466;7.950;2023-04-24T14:37:33;14.30;99.90
1137;DHT22;557;48.466;7.950;2023-04-24T14:40:21;14.30;99.90
1137;DHT22;557;48.466;7.950;2023-04-24T14:43:09;14.60;99.90
1137;DHT22;557;48.466;7.950;2023-04-24T14:45:56;14.90;99.90
1137;DHT22;557;48.466;7.950;2023-04-24T14:48:43;14.90;99.90
1137;DHT22;557;48.466;7.950;2023-04-24T14:51:32;14.70;99.90
1137;DHT22;557;48.466;7.950;2023-04-24T14:54:20;14.70;99.90
1137;DHT22;557;48.466;7.950;2023-04-24T14:57:09;14.50;99.90
1137;DHT22;557;48.466;7.950;2023-04-24T14:59:56;14.60;99.90
1137;DHT22;557;48.466;7.950;2023-04-24T15:02:44;14.60;99.90
1137;DHT22;557;48.466;7.950;2023-04-24T15:05:31;14.50;99.90
1137;DHT22;557;48.466;7.950;2023-04-24T15:08:20;14.50;99.90
1137;DHT22;557;48.466;7.950;2023-04-24T15:11:07;14.60;99.90
1137;DHT22;557;48.466;7.950;2023-04-24T15:13:55;14.60;99.90
1137;DHT22;557;48.466;7.950;2023-04-24T15:16:43;14.70;99.90
1137;DHT22;557;48.466;7.950;2023-04-24T15:19:31;14.60;99.90
1137;DHT22;557;48.466;7.950;2023-04-24T15:22:18;14.70;99.90
1137;DHT22;557;48.466;7.950;2023-04-24T15:25:07;14.80;99.90
1137;DHT22;557;48.466;7.950;2023-04-24T15:27:55;16.70;99.90
1137;DHT22;557;48.466;7.950;2023-04-24T15:30:43;17.30;90.50
1137;DHT22;557;48.466;7.950;2023-04-24T15:33:30;16.70;89.60
1137;DHT22;557;48.466;7.950;2023-04-24T15:36:18;16.40;83.40
1137;DHT22;557;48.466;7.950;2023-04-24T15:39:07;15.50;73.30
1137;DHT22;557;48.466;7.950;2023-04-24T15:41:57;14.80;73.40
1137;DHT22;557;48.466;7.950;2023-04-24T15:44:44;14.60;95.20
1137;DHT22;557;48.466;7.950;2023-04-24T15:47:32;14.50;98.20
1137;DHT22;557;48.466;7.950;2023-04-24T15:50:19;14.30;97.40
1137;DHT22;557;48.466;7.950;2023-04-24T15:53:08;14.20;98.90
1137;DHT22;557;48.466;7.950;2023-04-24T15:55:56;14.20;99.90
1137;DHT22;557;48.466;7.950;2023-04-24T15:58:44;14.10;99.20
1137;DHT22;557;48.466;7.950;2023-04-24T16:01:32;14.10;99.90
1137;DHT22;557;48.466;7.950;2023-04-24T16:04:19;13.90;99.90
1137;DHT22;557;48.466;7.950;2023-04-24T16:07:07;13.80;99.90
1137;DHT22;557;48.466;7.950;2023-04-24T16:09:54;13.90;99.90
1137;DHT22;557;48.466;7.950;2023-04-24T16:12:41;13.80;99.90
1137;DHT22;557;48.466;7.950;2023-04-24T16:15:30;13.80;99.90
1137;DHT22;557;48.466;7.950;2023-04-24T16:18:17;13.80;99.90
1137;DHT22;557;48.466;7.950;2023-04-24T16:21:05;13.80;99.90
1137;DHT22;557;48.466;7.950;2023-04-24T16:23:54;13.70;99.90
1137;DHT22;557;48.466;7.950;2023-04-24T16:26:41;13.50;99.90
1137;DHT22;557;48.466;7.950;2023-04-24T16:29:29;13.60;99.90
1137;DHT22;557;48.466;7.950;2023-04-24T16:32:20;13.40;99.90
1137;DHT22;557;48.466;7.950;2023-04-24T16:35:08;13.40;99.90
1137;DHT22;557;48.466;7.950;2023-04-24T16:37:55;13.20;99.90
1137;DHT22;557;48.466;7.950;2023-04-24T16:40:43;13.20;99.90
1137;DHT22;557;48.466;7.950;2023-04-24T16:43:30;13.10;99.90
1137;DHT22;557;48.466;7.950;2023-04-24T16:46:18;13.10;99.90
1137;DHT22;557;48.466;7.950;2023-04-24T16:49:07;13.00;99.90
1137;DHT22;557;48.466;7.950;2023-04-24T16:51:58;12.80;99.90
1137;DHT22;557;48.466;7.950;2023-04-24T16:54:45;12.70;99.90
1137;DHT22;557;48.466;7.950;2023-04-24T16:57:33;12.60;99.90
1137;DHT22;557;48.466;7.950;2023-04-24T17:00:20;12.60;99.90
1137;DHT22;557;48.466;7.950;2023-04-24T17:03:07;12.60;99.90
1137;DHT22;557;48.466;7.950;2023-04-24T17:05:56;12.50;99.90
1137;DHT22;557;48.466;7.950;2023-04-24T17:08:43;12.60;99.90
1137;DHT22;557;48.466;7.950;2023-04-24T17:11:30;12.60;99.90
1137;DHT22;557;48.466;7.950;2023-04-24T17:14:18;12.80;99.90
1137;DHT22;557;48.466;7.950;2023-04-24T17:17:05;13.00;99.90
1137;DHT22;557;48.466;7.950;2023-04-24T17:19:53;13.40;99.90
1137;DHT22;557;48.466;7.950;2023-04-24T17:22:41;13.80;99.90
1137;DHT22;557;48.466;7.950;2023-04-24T17:25:32;14.00;99.90
1137;DHT22;557;48.466;7.950;2023-04-24T17:28:24;14.20;99.90
1137;DHT22;557;48.466;7.950;2023-04-24T17:31:13;14.10;99.90
1137;DHT22;557;48.466;7.950;2023-04-24T17:34:01;13.90;99.90
1137;DHT22;557;48.466;7.950;2023-04-24T17:36:48;13.80;99.90
1137;DHT22;557;48.466;7.950;2023-04-24T17:39:37;13.70;99.90
1137;DHT22;557;48.466;7.950;2023-04-24T17:42:25;13.50;99.90
1137;DHT22;557;48.466;7.950;2023-04-24T17:45:12;13.30;99.90
1137;DHT22;557;48.466;7.950;2023-04-24T17:48:00;13.30;99.90
1137;DHT22;557;48.466;7.950;2023-04-24T17:50:48;13.10;99.90
1137;DHT22;557;48.466;7.950;2023-04-24T17:53:37;13.00;99.90
1137;DHT22;557;48.466;7.950;2023-04-24T17:56:26;12.90;99.90
1137;DHT22;557;48.466;7.950;2023-04-24T17:59:13;12.90;99.90
1137;DHT22;557;48.466;7.950;2023-04-24T18:02:01;12.80;99.90
1137;DHT22;557;48.466;7.950;2023-04-24T18:04:48;12.80;99.90
1137;DHT22;557;48.466;7.950;2023-04-24T18:07:36;12.60;99.90
1137;DHT22;557;48.466;7.950;2023-04-24T18:10:25;12.50;99.90
1137;DHT22;557;48.466;7.950;2023-04-24T18:13:13;12.40;99.90
1137;DHT22;557;48.466;7.950;2023-04-24T18:16:01;12.20;1.00
1137;DHT22;557;48.466;7.950;2023-04-24T18:18:48;12.10;1.00
1137;DHT22;557;48.466;7.950;2023-04-24T18:21:36;12.10;1.00
1137;DHT22;557;48.466;7.950;2023-04-24T18:24:23;12.00;99.90
1137;DHT22;557;48.466;7.950;2023-04-24T18:27:10;11.80;1.00
1137;DHT22;557;48.466;7.950;2023-04-24T18:29:59;11.80;99.90
1137;DHT22;557;48.466;7.950;2023-04-24T18:32:48;11.70;99.90
1137;DHT22;557;48.466;7.950;2023-04-24T18:35:35;11.70;99.90
1137;DHT22;557;48.466;7.950;2023-04-24T18:38:23;11.70;95.40
1137;DHT22;557;48.466;7.950;2023-04-24T18:41:11;11.60;99.90